Latest Weather Observations for Loxton

IDS60801

Issued at 11:31 pm CDT Wednesday 1 April 2015 (issued every 30 minutes, with the page automatically refreshed every 10 minutes)

About weather observations | Map of weather stations | Latest weather observations for SA | Other Formats
Station Details ID: 024024 Name: LOXTON RESEARCH CENTRE Lat: -34.44 Lon: 140.60 Height: 30.1 m
Data from the previous 72 hours. | See also: Recent months at Loxton
Date/Time
CDT
Temp
°C
App
Temp
°C
Dew
Point
Rel
Hum
%
Delta-T
°C
Wind Press
QNH
hPa
Press
MSL
hPa
Rain
since 9 am
mm
Dir
 
Spd
km/h
Gust
km/h
Spd
kts
Gust
kts
01/11:30pm 18.6 15.1 15.5 82 1.8 SSW 28 46 15 25 1017.7 1017.6 0.0
01/11:00pm 18.9 15.5 15.7 82 1.9 SSW 28 50 15 27 1017.3 1017.2 0.0
01/10:30pm 19.0 15.8 16.3 84 1.6 SSW 28 43 15 23 1017.1 1017.0 0.0
01/10:00pm 19.5 17.8 16.3 82 1.9 SSW 20 32 11 17 1017.2 1017.1 0.0
01/09:30pm 21.0 18.9 15.1 69 3.5 SSW 20 28 11 15 1017.1 1017.0 0.0
01/09:00pm 22.0 18.4 14.3 61 4.5 SSW 26 41 14 22 1016.7 1016.6 0.0
01/08:30pm 23.0 20.2 13.3 54 5.6 SW 20 37 11 20 1015.8 1015.7 0.0
01/08:00pm 23.8 19.6 12.4 48 6.5 SSW 26 39 14 21 1015.1 1015.0 0.0
01/07:39pm 25.9 21.6 10.8 38 8.5 SW 24 46 13 25 1014.6 1014.5 0.0
01/07:30pm 28.2 24.2 4.8 22 12.0 SW 15 22 8 12 1014.3 1014.2 0.0
01/07:00pm 29.6 24.2 1.3 16 13.8 WSW 19 30 10 16 1013.9 1013.8 0.0
01/06:30pm 30.5 25.8 1.0 15 14.4 WSW 15 26 8 14 1013.4 1013.3 0.0
01/06:00pm 31.0 25.9 1.0 14 14.7 W 17 28 9 15 1013.1 1013.0 0.0
01/05:30pm 31.3 26.1 0.4 14 15.0 NNW 17 22 9 12 1012.9 1012.8 0.0
01/05:00pm 31.6 26.7 -0.6 12 15.4 NNW 15 24 8 13 1013.0 1012.9 0.0
01/04:30pm 31.4 27.0 0.3 13 15.1 NW 13 22 7 12 1013.1 1013.0 0.0
01/04:00pm 31.5 26.1 -1.3 12 15.5 NW 17 30 9 16 1013.3 1013.2 0.0
01/03:30pm 31.3 25.4 -0.9 12 15.3 NNW 20 33 11 18 1013.5 1013.4 0.0
01/03:00pm 31.6 25.7 -1.0 12 15.5 NW 20 32 11 17 1013.9 1013.8 0.0
01/02:30pm 30.7 24.4 -1.2 12 15.0 NNW 22 32 12 17 1014.2 1014.1 0.0
01/02:00pm 31.1 25.7 -1.0 12 15.2 NNW 17 30 9 16 1014.7 1014.6 0.0
01/01:30pm 30.0 24.5 0.6 15 14.2 NNW 19 28 10 15 1015.2 1015.1 0.0
01/01:00pm 30.2 24.6 0.2 14 14.4 NNW 19 30 10 16 1015.6 1015.5 0.0
01/12:30pm 28.9 23.9 1.2 16 13.4 N 17 22 9 12 1016.2 1016.1 0.0
01/12:00pm 28.2 23.4 0.4 16 13.2 N 15 24 8 13 1016.6 1016.5 0.0
01/11:30am 28.2 24.1 2.0 18 12.8 N 13 22 7 12 1017.0 1016.9 0.0
01/11:00am 26.8 21.9 2.3 20 11.9 N 17 22 9 12 1017.4 1017.3 0.0
01/10:30am 24.8 19.8 1.1 21 11.1 NNW 17 24 9 13 1017.8 1017.7 0.0
01/10:00am 21.5 18.7 3.2 30 8.7 NNW 7 11 4 6 1018.1 1018.0 0.0
01/09:30am 20.1 16.8 4.3 35 7.6 NNW 11 13 6 7 1018.1 1018.0 0.0
01/09:00am 18.3 15.7 4.4 39 6.6 N 7 11 4 6 1018.2 1018.1 0.0
01/08:58am 18.3 16.0 4.7 40 6.5 NNW 6 11 3 6 1018.2 1018.1 0.0
01/08:30am 13.3 13.0 8.5 72 2.4 CALM 0 0 0 0 1018.2 1018.1 0.0
01/08:00am 10.4 9.7 7.0 79 1.6 CALM 0 0 0 0 1017.8 1017.7 0.0
01/07:30am 9.4 8.8 7.5 88 0.9 CALM 0 0 0 0 1017.8 1017.7 0.0
01/07:00am 9.6 8.9 6.8 83 1.3 CALM 0 0 0 0 1017.8 1017.7 0.0
01/06:30am 9.6 9.1 7.7 88 0.9 CALM 0 0 0 0 1017.9 1017.8 0.0
01/06:00am 9.4 8.7 6.8 84 1.2 CALM 0 0 0 0 1017.8 1017.7 0.0
01/05:30am 9.4 8.8 7.3 87 1.0 CALM 0 0 0 0 1017.6 1017.5 0.0
01/05:00am 9.4 8.6 6.6 83 1.3 CALM 0 0 0 0 1017.5 1017.4 0.0
01/04:30am 9.8 9.0 6.6 80 1.5 CALM 0 0 0 0 1017.8 1017.7 0.0
01/04:00am 10.3 9.7 7.4 82 1.4 CALM 0 0 0 0 1018.1 1018.0 0.0
01/03:30am 10.5 9.9 7.6 82 1.4 CALM 0 0 0 0 1018.3 1018.2 0.0
01/03:00am 10.8 10.2 7.2 78 1.7 CALM 0 0 0 0 1018.7 1018.6 0.0
01/02:30am 11.3 10.8 8.0 80 1.6 CALM 0 0 0 0 1019.1 1019.0 0.0
01/02:00am 12.2 11.9 8.6 78 1.8 CALM 0 0 0 0 1019.5 1019.4 0.0
01/01:30am 13.4 12.9 7.7 68 2.8 CALM 0 0 0 0 1019.7 1019.6 0.0
01/01:00am 12.8 12.5 8.8 76 2.0 CALM 0 0 0 0 1019.6 1019.5 0.0
01/12:30am 13.0 12.5 7.7 70 2.6 CALM 0 0 0 0 1019.8 1019.7 0.0
01/12:00am 13.6 13.4 9.0 74 2.3 CALM 0 0 0 0 1019.9 1019.8 0.0
 
Date/Time
CDT
Temp
°C
App
Temp
°C
Dew
Point
Rel
Hum
%
Delta-T
°C
Wind Press
QNH
hPa
Press
MSL
hPa
Rain
since 9 am
mm
Dir
 
Spd
km/h
Gust
km/h
Spd
kts
Gust
kts
31/11:30pm 14.1 14.2 10.0 76 2.1 CALM 0 0 0 0 1020.0 1019.9 0.0
31/11:00pm 14.7 14.8 10.1 74 2.4 CALM 0 0 0 0 1020.0 1019.9 0.0
31/10:30pm 15.0 15.4 11.2 78 2.0 CALM 0 0 0 0 1020.0 1019.9 0.0
31/10:00pm 15.7 16.1 11.4 75 2.3 CALM 0 0 0 0 1020.2 1020.1 0.0
31/09:30pm 16.6 16.9 10.8 68 3.1 CALM 0 0 0 0 1020.4 1020.3 0.0
31/09:00pm 17.2 17.8 11.9 71 2.9 CALM 0 0 0 0 1020.4 1020.3 0.0
31/08:30pm 17.8 18.4 11.8 68 3.3 CALM 0 0 0 0 1020.2 1020.1 0.0
31/08:00pm 18.8 19.5 12.3 66 3.6 CALM 0 0 0 0 1020.1 1020.0 0.0
31/07:30pm 20.4 21.0 12.0 58 4.7 CALM 0 0 0 0 1019.8 1019.7 0.0
31/07:00pm 23.5 24.7 13.9 55 5.6 CALM 0 0 0 0 1019.6 1019.5 0.0
31/06:30pm 27.3 26.8 12.0 38 8.8 NE 6 7 3 4 1019.6 1019.5 0.0
31/06:00pm 28.3 27.2 8.3 28 10.9 NE 4 9 2 5 1019.7 1019.6 0.0
31/05:30pm 30.2 27.9 2.9 17 13.7 N 4 13 2 7 1019.8 1019.7 0.0
31/05:00pm 30.2 26.4 1.7 16 14.0 N 11 19 6 10 1019.9 1019.8 0.0
31/04:30pm 30.4 27.1 2.2 16 14.0 NE 9 17 5 9 1019.8 1019.7 0.0
31/04:00pm 30.9 27.6 2.2 16 14.3 ESE 9 20 5 11 1020.0 1019.9 0.0
31/03:30pm 30.1 26.4 2.3 17 13.8 NNW 11 19 6 10 1020.3 1020.2 0.0
31/03:00pm 30.1 26.5 3.0 17 13.6 N 11 20 6 11 1020.8 1020.7 0.0
31/02:30pm 29.7 25.6 2.1 17 13.6 NNE 13 20 7 11 1021.3 1021.2 0.0
31/02:00pm 29.9 25.5 2.6 17 13.6 NNE 15 20 8 11 1021.7 1021.6 0.0
31/01:30pm 29.1 25.9 3.1 19 13.0 NNW 9 20 5 11 1022.0 1021.9 0.0
31/01:00pm 28.8 25.5 4.5 21 12.5 N 11 20 6 11 1022.4 1022.3 0.0
31/12:30pm 28.0 24.3 4.3 22 12.0 NE 13 20 7 11 1022.9 1022.8 0.0
31/12:00pm 27.2 23.6 5.1 24 11.3 NE 13 20 7 11 1023.6 1023.5 0.0
31/11:30am 26.5 23.1 6.0 27 10.6 NE 13 19 7 10 1024.1 1024.0 0.0
31/11:00am 24.8 21.9 6.3 30 9.6 NE 11 17 6 9 1024.6 1024.5 0.0
31/10:30am 22.9 20.4 6.7 35 8.3 ENE 9 13 5 7 1024.8 1024.7 0.0
31/10:00am 21.0 17.7 6.5 39 7.3 ENE 13 17 7 9 1025.0 1024.9 0.0
31/09:30am 18.7 16.3 6.9 46 5.9 E 9 15 5 8 1025.1 1025.0 0.0
31/09:00am 16.8 14.3 8.1 56 4.4 ESE 11 13 6 7 1025.3 1025.2 0.0
31/08:30am 14.7 12.6 8.1 64 3.3 SSE 9 13 5 7 1025.5 1025.4 0.0
31/08:00am 11.6 10.0 8.6 82 1.5 SE 7 9 4 5 1025.0 1024.9 0.0
31/07:30am 10.6 9.0 8.1 84 1.2 SSE 6 9 3 5 1024.6 1024.5 0.0
31/07:00am 11.1 9.6 8.4 83 1.3 SE 6 7 3 4 1024.5 1024.4 0.0
31/06:30am 11.0 9.5 8.6 85 1.2 SSE 6 9 3 5 1024.3 1024.2 0.0
31/06:00am 10.9 10.7 8.9 87 1.0 CALM 0 0 0 0 1024.0 1023.9 0.0
31/05:30am 11.4 10.0 9.0 85 1.2 S 6 9 3 5 1023.8 1023.7 0.0
31/05:00am 11.6 10.2 9.0 84 1.3 SE 6 9 3 5 1023.6 1023.5 0.0
31/04:30am 12.6 10.8 9.4 81 1.6 SSE 9 11 5 6 1023.5 1023.4 0.0
31/04:00am 13.9 11.6 8.9 72 2.5 SSE 11 13 6 7 1023.5 1023.4 0.0
31/03:30am 13.9 11.8 9.8 76 2.1 SE 11 13 6 7 1023.7 1023.6 0.0
31/03:00am 14.4 11.8 9.5 72 2.5 SSE 13 15 7 8 1023.9 1023.8 0.0
31/02:30am 14.6 12.5 9.7 72 2.5 SE 11 13 6 7 1024.0 1023.9 0.0
31/02:00am 14.9 13.2 9.7 71 2.7 SSE 9 13 5 7 1024.2 1024.1 0.0
31/01:30am 16.0 13.4 9.2 64 3.5 SSE 13 19 7 10 1024.4 1024.3 0.0
31/01:00am 16.3 14.0 8.9 61 3.8 SSE 11 17 6 9 1024.5 1024.4 0.0
31/12:30am 16.5 14.1 8.7 60 4.0 SSE 11 15 6 8 1024.6 1024.5 0.0
31/12:00am 17.0 14.5 8.1 55 4.5 SSE 11 15 6 8 1024.5 1024.4 0.0
 
Date/Time
CDT
Temp
°C
App
Temp
°C
Dew
Point
Rel
Hum
%
Delta-T
°C
Wind Press
QNH
hPa
Press
MSL
hPa
Rain
since 9 am
mm
Dir
 
Spd
km/h
Gust
km/h
Spd
kts
Gust
kts
30/11:30pm 18.0 15.0 7.5 50 5.3 S 13 15 7 8 1024.7 1024.6 0.0
30/11:00pm 18.8 15.1 6.5 44 6.1 S 15 20 8 11 1024.7 1024.6 0.0
30/10:30pm 19.8 15.7 4.4 36 7.4 S 15 20 8 11 1024.7 1024.6 0.0
30/10:00pm 19.5 16.2 4.5 37 7.2 SSW 11 13 6 7 1024.5 1024.4 0.0
30/09:30pm 18.7 16.2 6.6 45 6.0 SSW 9 11 5 6 1024.3 1024.2 0.0
30/09:00pm 19.2 16.8 6.8 44 6.2 SSW 9 11 5 6 1024.1 1024.0 0.0
30/08:30pm 20.3 17.9 7.1 42 6.7 SSW 9 13 5 7 1024.0 1023.9 0.0
30/08:00pm 21.5 18.7 7.0 39 7.4 SSW 11 13 6 7 1023.7 1023.6 0.0
30/07:30pm 22.0 19.9 8.3 41 7.2 SSW 9 11 5 6 1023.3 1023.2 0.0
30/07:00pm 24.4 22.5 7.4 33 8.9 S 7 11 4 6 1023.0 1022.9 0.0
30/06:30pm 25.8 22.5 6.6 29 10.0 SSW 13 19 7 10 1022.9 1022.8 0.0
30/06:00pm 26.5 22.8 6.3 27 10.5 SW 15 20 8 11 1022.6 1022.5 0.0
30/05:30pm 26.8 23.5 6.2 27 10.7 SSW 13 20 7 11 1022.4 1022.3 0.0
30/05:00pm 26.9 22.9 6.7 27 10.6 SE 17 24 9 13 1022.3 1022.2 0.0
30/04:30pm 27.2 23.9 6.6 27 10.8 SW 13 20 7 11 1022.2 1022.1 0.0
30/04:00pm 26.9 23.3 6.7 27 10.6 S 15 24 8 13 1022.4 1022.3 0.0
30/03:30pm 26.7 24.2 6.6 27 10.5 S 9 19 5 10 1022.5 1022.4 0.0
30/03:00pm 26.7 24.5 7.8 30 10.1 WNW 9 15 5 8 1022.9 1022.8 0.0
30/02:30pm 26.5 24.6 7.7 30 10.0 SE 7 15 4 8 1023.1 1023.0 0.0
30/02:00pm 25.7 23.6 8.4 33 9.3 S 9 17 5 9 1023.3 1023.2 0.0
30/01:30pm 25.7 24.1 7.8 32 9.5 W 6 11 3 6 1023.7 1023.6 0.0
30/01:00pm 24.7 22.2 8.4 35 8.7 SW 11 17 6 9 1024.2 1024.1 0.0
30/12:30pm 24.2 22.1 8.4 36 8.4 WSW 9 13 5 7 1024.6 1024.5 0.0
30/12:00pm 23.9 21.7 8.0 36 8.4 W 9 13 5 7 1024.8 1024.7 0.0
30/11:30am 23.2 20.6 7.9 37 8.0 SW 11 17 6 9 1025.2 1025.1 0.0
30/11:00am 22.4 20.2 7.8 39 7.6 S 9 17 5 9 1025.6 1025.5 0.0
30/10:30am 21.9 19.6 7.6 39 7.4 S 9 17 5 9 1025.6 1025.5 0.0
30/10:00am 20.0 17.8 7.9 45 6.2 S 9 13 5 7 1025.6 1025.5 0.0
30/09:30am 18.3 16.2 8.1 51 5.2 SSW 9 15 5 8 1025.4 1025.3 0.0
30/09:00am 16.6 14.0 7.8 56 4.4 SSW 11 15 6 8 1025.2 1025.1 0.0
30/08:30am 14.9 13.0 7.6 61 3.6 SSW 7 11 4 6 1024.8 1024.7 0.0
30/08:00am 12.1 11.5 7.3 72 2.3 CALM 0 0 0 0 1024.4 1024.3 0.0
30/07:30am 10.5 9.8 6.9 78 1.7 CALM 0 0 0 0 1024.1 1024.0 0.0
30/07:00am 11.3 9.3 6.9 74 2.1 SW 7 9 4 5 1023.7 1023.6 0.0
30/06:30am 11.4 9.6 7.0 74 2.1 SW 6 13 3 7 1023.4 1023.3 0.0
30/06:00am 12.0 10.3 7.4 73 2.2 SSW 6 7 3 4 1023.2 1023.1 0.0
30/05:30am 13.0 10.5 6.7 65 3.0 S 9 9 5 5 1022.8 1022.7 0.0
30/05:00am 12.5 10.2 7.3 70 2.5 SE 9 11 5 6 1022.6 1022.5 0.0
30/04:30am 13.2 10.4 7.0 66 3.0 SSE 11 13 6 7 1022.7 1022.6 0.0
30/04:00am 14.2 10.8 6.0 58 3.9 S 13 15 7 8 1022.7 1022.6 0.0
30/03:30am 14.2 11.2 6.0 58 3.9 S 11 15 6 8 1022.9 1022.8 0.0
30/03:00am 14.9 11.5 5.9 55 4.3 S 13 15 7 8 1022.9 1022.8 0.0
30/02:30am 15.0 12.1 6.3 56 4.2 S 11 13 6 7 1023.1 1023.0 0.0
30/02:00am 15.7 12.3 5.9 52 4.7 S 13 15 7 8 1023.0 1022.9 0.0
30/01:30am 15.5 12.0 5.6 51 4.7 S 13 15 7 8 1023.0 1022.9 0.0
30/01:00am 16.4 12.9 5.3 47 5.3 S 13 17 7 9 1022.9 1022.8 0.0
30/12:30am 15.3 12.2 5.6 52 4.6 SSE 11 13 6 7 1022.9 1022.8 0.0
30/12:00am 14.3 12.3 6.9 61 3.6 S 7 9 4 5 1023.0 1022.9 0.0

Other Formats:

Comma delimited format used in spreadsheet applications
http://www.bom.gov.au/fwo/IDS60801/IDS60801.94682.axf

JavaScript Object Notation format (JSON) in row-major order
http://www.bom.gov.au/fwo/IDS60801/IDS60801.94682.json